createdAt,value
2018-10-18T00:00:19.763Z,20.87
2018-10-18T00:02:49.041Z,20.40
2018-10-18T00:05:18.154Z,20.13
2018-10-18T00:07:47.235Z,20.70
2018-10-18T00:10:16.603Z,22.90
2018-10-18T00:12:45.749Z,23.13
2018-10-18T00:15:14.913Z,21.93
2018-10-18T00:17:45.075Z,20.83
2018-10-18T00:20:15.063Z,20.53
2018-10-18T00:22:44.858Z,20.43
2018-10-18T00:25:14.509Z,21.00
2018-10-18T00:27:43.610Z,21.20
2018-10-18T00:30:14.088Z,20.40
2018-10-18T00:32:44.074Z,18.90
2018-10-18T00:35:13.351Z,20.37
2018-10-18T00:37:42.473Z,21.80
2018-10-18T00:40:12.511Z,20.63
2018-10-18T00:42:42.501Z,18.70
2018-10-18T00:45:11.612Z,19.60
2018-10-18T00:47:40.975Z,18.50
2018-10-18T00:50:11.216Z,17.73
2018-10-18T00:52:40.420Z,19.17
2018-10-18T00:55:11.918Z,20.43
2018-10-18T00:57:41.806Z,19.73
2018-10-18T01:00:11.738Z,19.97
2018-10-18T01:02:41.191Z,21.93
2018-10-18T01:05:10.300Z,20.90
2018-10-18T01:07:40.123Z,20.50
2018-10-18T01:10:09.387Z,19.70
2018-10-18T01:12:38.554Z,19.30
2018-10-18T01:15:07.823Z,19.57
2018-10-18T01:17:37.094Z,21.00
2018-10-18T01:20:06.391Z,20.63
2018-10-18T01:22:35.404Z,21.83
2018-10-18T01:25:05.375Z,19.43
2018-10-18T01:27:34.465Z,20.80
2018-10-18T01:30:03.926Z,20.80
2018-10-18T01:32:33.283Z,19.40
2018-10-18T01:35:02.369Z,20.03
2018-10-18T01:37:31.533Z,18.97
2018-10-18T01:40:00.805Z,19.43
2018-10-18T01:42:29.927Z,19.47
2018-10-18T01:44:59.049Z,20.27
2018-10-18T01:47:28.469Z,21.03
2018-10-18T01:49:58.415Z,20.93
2018-10-18T01:52:27.482Z,22.20
2018-10-18T01:54:56.977Z,21.90
2018-10-18T01:57:26.113Z,21.37
2018-10-18T01:59:55.222Z,20.03
2018-10-18T02:02:24.470Z,22.03
2018-10-18T02:04:53.604Z,20.80
2018-10-18T02:07:22.714Z,21.13
2018-10-18T02:09:52.489Z,20.97
2018-10-18T02:12:21.593Z,20.97
2018-10-18T02:14:50.670Z,20.27
2018-10-18T02:17:20.068Z,22.17
2018-10-18T02:19:49.165Z,22.00
2018-10-18T02:22:18.290Z,23.50
2018-10-18T02:24:47.664Z,23.67
2018-10-18T02:27:16.753Z,21.97
2018-10-18T02:29:45.846Z,23.67
2018-10-18T02:32:15.097Z,21.10
2018-10-18T02:34:44.182Z,22.47
2018-10-18T02:37:13.269Z,21.60
2018-10-18T02:39:42.959Z,22.63
2018-10-18T02:42:12.724Z,19.57
2018-10-18T02:44:41.714Z,19.73
2018-10-18T02:47:10.992Z,21.73
2018-10-18T02:49:40.139Z,22.87
2018-10-18T02:52:09.782Z,21.40
2018-10-18T02:54:39.358Z,20.87
2018-10-18T02:57:08.975Z,21.83
2018-10-18T02:59:38.065Z,22.33
2018-10-18T03:02:07.883Z,22.10
2018-10-18T03:04:36.982Z,20.33
2018-10-18T03:07:06.104Z,21.47
2018-10-18T03:09:35.624Z,21.33
2018-10-18T03:12:05.238Z,20.50
2018-10-18T03:14:34.346Z,19.63
2018-10-18T03:17:03.894Z,19.60
2018-10-18T03:19:32.994Z,20.70
2018-10-18T03:22:02.075Z,20.53
2018-10-18T03:24:31.477Z,21.27
2018-10-18T03:27:00.591Z,20.70
2018-10-18T03:29:29.693Z,21.10
2018-10-18T03:31:58.971Z,19.53
2018-10-18T03:34:28.781Z,20.63
2018-10-18T03:36:57.867Z,20.43
2018-10-18T03:39:27.114Z,21.13
2018-10-18T03:41:56.224Z,23.17
2018-10-18T03:44:25.337Z,21.73
2018-10-18T03:46:54.469Z,21.97
2018-10-18T03:49:23.559Z,20.70
2018-10-18T03:51:52.818Z,22.20
2018-10-18T03:54:22.174Z,21.17
2018-10-18T03:56:51.263Z,21.70
2018-10-18T03:59:20.415Z,20.37
2018-10-18T04:01:49.603Z,20.20
2018-10-18T04:04:18.685Z,21.93
2018-10-18T04:06:47.811Z,21.13
2018-10-18T04:09:17.129Z,20.33
2018-10-18T04:11:46.206Z,21.17
2018-10-18T04:14:15.331Z,21.77
2018-10-18T04:16:44.654Z,20.80
2018-10-18T04:19:13.733Z,19.87
2018-10-18T04:21:42.869Z,20.77
2018-10-18T04:24:12.270Z,20.70
2018-10-18T04:26:41.355Z,19.67
2018-10-18T04:29:10.484Z,21.73
2018-10-18T04:31:39.651Z,21.03
2018-10-18T04:34:08.722Z,22.83
2018-10-18T04:36:37.825Z,22.00
2018-10-18T04:39:10.063Z,21.10
2018-10-18T04:41:39.265Z,21.20
2018-10-18T04:44:08.473Z,22.37
2018-10-18T04:46:38.179Z,22.00
2018-10-18T04:49:07.285Z,20.33
2018-10-18T04:51:37.363Z,23.57
2018-10-18T04:54:07.201Z,24.63
2018-10-18T04:56:36.362Z,24.90
2018-10-18T04:59:05.599Z,24.73
2018-10-18T05:01:38.965Z,25.17
2018-10-18T05:04:08.417Z,24.80
2018-10-18T05:06:37.553Z,25.50
2018-10-18T05:09:07.571Z,22.60
2018-10-18T05:11:36.763Z,23.37
2018-10-18T05:14:05.893Z,24.67
2018-10-18T05:16:34.985Z,24.77
2018-10-18T05:19:04.307Z,25.17
2018-10-18T05:21:33.376Z,25.67
2018-10-18T05:24:02.538Z,26.60
2018-10-18T05:26:31.743Z,26.87
2018-10-18T05:29:00.826Z,26.27
2018-10-18T05:31:29.988Z,27.57
2018-10-18T05:33:59.391Z,29.90
2018-10-18T05:36:28.493Z,28.53
2018-10-18T05:38:57.588Z,28.57
2018-10-18T05:41:26.859Z,29.53
2018-10-18T05:43:55.945Z,27.97
2018-10-18T05:46:25.095Z,27.90
2018-10-18T05:48:54.353Z,28.07
2018-10-18T05:51:23.457Z,27.23
2018-10-18T05:53:52.662Z,27.03
2018-10-18T05:56:21.797Z,23.63
2018-10-18T05:58:50.897Z,24.70
2018-10-18T06:01:20.035Z,24.60
2018-10-18T06:03:49.283Z,26.37
2018-10-18T06:06:18.369Z,24.70
2018-10-18T06:08:47.494Z,22.37
2018-10-18T06:11:29.355Z,22.87
2018-10-18T06:13:58.428Z,24.73
2018-10-18T06:16:28.021Z,23.57
2018-10-18T06:18:57.603Z,23.97
2018-10-18T06:21:26.695Z,25.20
2018-10-18T06:23:56.167Z,25.20
2018-10-18T06:26:25.741Z,25.47
2018-10-18T06:28:54.902Z,26.17
2018-10-18T06:31:24.004Z,25.80
2018-10-18T06:33:53.422Z,25.63
2018-10-18T06:36:22.519Z,25.70
2018-10-18T06:38:52.129Z,25.53
2018-10-18T06:41:21.714Z,24.80
2018-10-18T06:43:50.865Z,25.10
2018-10-18T06:46:19.971Z,25.57
2018-10-18T06:48:49.863Z,25.13
2018-10-18T06:51:18.945Z,25.43
2018-10-18T06:53:48.049Z,23.80
2018-10-18T06:56:17.427Z,25.70
2018-10-18T06:58:46.530Z,25.93
2018-10-18T07:01:15.637Z,25.63
2018-10-18T07:03:44.871Z,26.13
2018-10-18T07:06:14.031Z,24.77
2018-10-18T07:08:43.045Z,24.23
2018-10-18T07:11:12.309Z,24.40
2018-10-18T07:13:41.401Z,25.53
2018-10-18T07:16:10.517Z,25.50
2018-10-18T07:18:39.687Z,23.60
2018-10-18T07:21:08.807Z,26.23
2018-10-18T07:23:37.897Z,25.30
2018-10-18T07:26:07.193Z,26.30
2018-10-18T07:28:36.299Z,25.43
2018-10-18T07:31:05.485Z,25.90
2018-10-18T07:33:34.723Z,24.90
2018-10-18T07:36:03.897Z,25.87
2018-10-18T07:38:32.963Z,26.23
2018-10-18T07:41:02.619Z,28.03
2018-10-18T07:43:31.699Z,31.23
2018-10-18T07:46:00.799Z,31.73
2018-10-18T07:48:30.009Z,39.97
2018-10-18T07:50:59.273Z,44.43
2018-10-18T07:53:28.419Z,45.30
2018-10-18T07:55:58.735Z,41.00
2018-10-18T07:58:27.851Z,35.73
2018-10-18T08:00:57.000Z,35.27
2018-10-18T08:03:26.576Z,33.20
2018-10-18T08:05:55.635Z,30.03
2018-10-18T08:08:24.747Z,32.57
2018-10-18T08:10:54.219Z,32.33
2018-10-18T08:13:23.263Z,33.23
2018-10-18T08:15:52.381Z,32.50
2018-10-18T08:18:21.556Z,32.47
2018-10-18T08:20:50.624Z,32.53
2018-10-18T08:23:19.709Z,32.57
2018-10-18T08:25:48.973Z,30.07
2018-10-18T08:28:18.065Z,30.40
2018-10-18T08:30:47.206Z,29.83
2018-10-18T08:33:16.475Z,27.70
2018-10-18T08:35:45.579Z,28.27
2018-10-18T08:38:14.833Z,27.27
2018-10-18T08:40:43.977Z,28.77
2018-10-18T08:43:13.175Z,30.73
2018-10-18T08:45:42.149Z,28.30
2018-10-18T08:48:11.561Z,28.90
2018-10-18T08:50:40.654Z,28.93
2018-10-18T08:53:09.739Z,29.43
2018-10-18T08:55:39.363Z,31.70
2018-10-18T08:58:08.419Z,31.23
2018-10-18T09:00:37.478Z,30.00
2018-10-18T09:03:07.033Z,29.93
2018-10-18T09:05:36.117Z,30.90
2018-10-18T09:08:05.592Z,28.57
2018-10-18T09:10:34.767Z,31.40
2018-10-18T09:13:04.753Z,32.10
2018-10-18T09:15:33.915Z,31.57
2018-10-18T09:18:09.163Z,31.27
2018-10-18T09:20:38.481Z,32.50
2018-10-18T09:23:07.646Z,33.17
2018-10-18T09:25:36.947Z,34.43
2018-10-18T09:28:06.143Z,33.50
2018-10-18T09:30:35.215Z,34.70
2018-10-18T09:33:05.073Z,33.97
2018-10-18T09:35:34.157Z,36.47
2018-10-18T09:38:03.252Z,38.13
2018-10-18T09:40:32.777Z,38.37
2018-10-18T09:43:01.935Z,36.77
2018-10-18T09:45:30.997Z,40.50
2018-10-18T09:48:00.570Z,40.20
2018-10-18T09:50:29.681Z,40.13
2018-10-18T09:52:58.799Z,38.93
2018-10-18T09:55:28.204Z,37.97
2018-10-18T09:57:57.280Z,39.47
2018-10-18T10:00:32.287Z,40.37
2018-10-18T10:03:06.630Z,40.10
2018-10-18T10:05:36.139Z,40.60
2018-10-18T10:08:08.869Z,40.47
2018-10-18T10:10:38.777Z,38.40
2018-10-18T10:13:08.391Z,39.37
2018-10-18T10:15:37.382Z,38.07
2018-10-18T10:18:06.664Z,38.40
2018-10-18T10:20:35.788Z,38.07
2018-10-18T10:23:04.919Z,38.07
2018-10-18T10:25:34.173Z,36.80
2018-10-18T10:28:03.437Z,40.63
2018-10-18T10:30:32.642Z,37.00
2018-10-18T10:33:01.952Z,37.23
2018-10-18T10:35:31.049Z,35.77
2018-10-18T10:38:00.109Z,37.50
2018-10-18T10:40:29.409Z,34.97
2018-10-18T10:42:58.524Z,34.10
2018-10-18T10:45:27.595Z,32.50
2018-10-18T10:47:56.926Z,34.40
2018-10-18T10:50:25.991Z,32.67
2018-10-18T10:52:55.133Z,33.60
2018-10-18T10:55:24.443Z,31.40
2018-10-18T10:57:53.551Z,31.97
2018-10-18T11:00:30.961Z,27.00
2018-10-18T11:03:00.218Z,28.90
2018-10-18T11:05:29.401Z,29.80
2018-10-18T11:07:58.690Z,27.43
2018-10-18T11:10:27.865Z,26.67
2018-10-18T11:12:58.633Z,27.67
2018-10-18T11:15:28.207Z,29.13
2018-10-18T11:17:57.317Z,26.13
2018-10-18T11:20:26.457Z,25.57
2018-10-18T11:22:56.805Z,24.63
2018-10-18T11:25:26.012Z,23.63
2018-10-18T11:27:55.150Z,22.40
2018-10-18T11:30:24.716Z,22.30
2018-10-18T11:32:53.880Z,21.77
2018-10-18T11:35:22.924Z,21.20
2018-10-18T11:37:52.214Z,18.60
2018-10-18T11:40:21.388Z,19.10
2018-10-18T11:42:50.625Z,16.83
2018-10-18T11:45:20.020Z,17.53
2018-10-18T11:47:49.137Z,16.10
2018-10-18T11:50:18.359Z,19.77
2018-10-18T11:52:47.985Z,16.00
2018-10-18T11:55:17.065Z,16.20
2018-10-18T11:57:46.379Z,17.60
2018-10-18T12:00:19.295Z,16.30
2018-10-18T12:02:49.532Z,15.40
2018-10-18T12:05:18.841Z,15.73
2018-10-18T12:07:48.395Z,15.63
2018-10-18T12:10:17.477Z,14.13
2018-10-18T12:12:46.634Z,14.87
2018-10-18T12:15:15.957Z,15.17
2018-10-18T12:17:45.128Z,15.20
2018-10-18T12:20:15.800Z,15.70
2018-10-18T12:22:45.072Z,15.87
2018-10-18T12:25:14.697Z,15.17
2018-10-18T12:27:44.349Z,15.47
2018-10-18T12:30:14.193Z,14.63
2018-10-18T12:32:43.427Z,15.37
2018-10-18T12:35:12.738Z,14.87
2018-10-18T12:37:41.891Z,14.33
2018-10-18T12:40:10.982Z,15.23
2018-10-18T12:42:41.661Z,14.20
2018-10-18T12:45:12.204Z,14.23
2018-10-18T12:47:42.036Z,13.70
2018-10-18T12:50:11.319Z,13.83
2018-10-18T12:52:40.578Z,13.97
2018-10-18T12:55:09.687Z,14.20
2018-10-18T12:57:38.866Z,13.20
2018-10-18T13:00:09.154Z,14.53
2018-10-18T13:02:38.337Z,13.33
2018-10-18T13:05:08.523Z,13.70
2018-10-18T13:07:38.146Z,13.47
2018-10-18T13:10:09.057Z,14.10
2018-10-18T13:12:38.292Z,14.23
2018-10-18T13:15:08.694Z,15.00
2018-10-18T13:17:37.910Z,14.37
2018-10-18T13:20:07.916Z,13.70
2018-10-18T13:22:37.144Z,14.43
2018-10-18T13:25:07.864Z,14.80
2018-10-18T13:27:37.389Z,12.83
2018-10-18T13:30:08.371Z,14.83
2018-10-18T13:32:37.424Z,14.50
2018-10-18T13:35:06.951Z,12.30
2018-10-18T13:37:36.269Z,14.70
2018-10-18T13:40:07.138Z,12.87
2018-10-18T13:42:36.262Z,11.97
2018-10-18T13:45:06.421Z,14.47
2018-10-18T13:47:35.942Z,13.50
2018-10-18T13:50:05.720Z,13.10
2018-10-18T13:52:35.573Z,12.60
2018-10-18T13:55:05.356Z,12.70
2018-10-18T13:57:34.459Z,12.50
2018-10-18T14:00:23.931Z,13.43
2018-10-18T14:02:54.044Z,13.30
2018-10-18T14:05:23.567Z,13.30
2018-10-18T14:07:53.638Z,14.70
2018-10-18T14:10:22.733Z,15.30
2018-10-18T14:12:52.555Z,14.40
2018-10-18T14:15:22.024Z,13.63
2018-10-18T14:17:51.127Z,14.40
2018-10-18T14:20:20.335Z,13.40
2018-10-18T14:22:49.928Z,14.53
2018-10-18T14:25:19.023Z,14.27
2018-10-18T14:27:48.136Z,13.67
2018-10-18T14:30:18.467Z,13.30
2018-10-18T14:32:47.468Z,12.50
2018-10-18T14:35:16.639Z,12.30
2018-10-18T14:37:45.862Z,13.43
2018-10-18T14:40:14.949Z,13.13
2018-10-18T14:42:44.092Z,12.57
2018-10-18T14:45:13.614Z,12.77
2018-10-18T14:47:42.746Z,13.47
2018-10-18T14:50:13.422Z,13.20
2018-10-18T14:52:43.344Z,12.77
2018-10-18T14:55:12.511Z,13.10
2018-10-18T14:57:41.782Z,13.63
2018-10-18T15:00:12.478Z,12.90
2018-10-18T15:02:41.682Z,13.10
2018-10-18T15:05:11.711Z,13.00
2018-10-18T15:07:41.447Z,14.23
2018-10-18T15:10:11.906Z,13.33
2018-10-18T15:12:41.348Z,12.80
2018-10-18T15:15:12.723Z,12.47
2018-10-18T15:17:42.138Z,12.47
2018-10-18T15:20:12.124Z,12.10
2018-10-18T15:22:42.022Z,12.67
2018-10-18T15:25:12.090Z,11.40
2018-10-18T15:27:41.735Z,12.83
2018-10-18T15:30:11.692Z,11.50
2018-10-18T15:32:41.291Z,11.70
2018-10-18T15:35:11.379Z,11.70
2018-10-18T15:37:41.558Z,11.13
2018-10-18T15:40:10.621Z,11.63
2018-10-18T15:42:39.686Z,11.40
2018-10-18T15:45:09.797Z,12.63
2018-10-18T15:47:39.102Z,11.50
2018-10-18T15:50:09.362Z,13.10
2018-10-18T15:52:38.596Z,11.47
2018-10-18T15:55:08.092Z,13.23
2018-10-18T15:57:37.274Z,13.80
2018-10-18T16:00:08.742Z,13.27
2018-10-18T16:02:37.778Z,11.27
2018-10-18T16:05:06.977Z,12.23
2018-10-18T16:07:36.481Z,10.70
2018-10-18T16:10:06.738Z,10.47
2018-10-18T16:12:35.906Z,10.70
2018-10-18T16:15:05.763Z,10.43
2018-10-18T16:17:34.898Z,12.00
2018-10-18T16:20:04.188Z,11.47
2018-10-18T16:22:33.333Z,11.13
2018-10-18T16:25:03.380Z,10.70
2018-10-18T16:27:32.500Z,10.50
2018-10-18T16:30:01.845Z,9.93
2018-10-18T16:32:30.895Z,11.10
2018-10-18T16:34:59.986Z,10.80
2018-10-18T16:37:29.137Z,11.20
2018-10-18T16:39:58.256Z,12.53
2018-10-18T16:42:27.339Z,11.40
2018-10-18T16:44:56.587Z,11.80
2018-10-18T16:47:25.666Z,12.77
2018-10-18T16:49:55.031Z,13.23
2018-10-18T16:52:24.251Z,12.20
2018-10-18T16:54:53.416Z,14.23
2018-10-18T16:57:22.611Z,12.07
2018-10-18T16:59:51.946Z,12.10
2018-10-18T17:02:21.131Z,12.83
2018-10-18T17:04:50.214Z,14.03
2018-10-18T17:07:19.677Z,13.10
2018-10-18T17:09:48.763Z,13.80
2018-10-18T17:12:17.881Z,12.90
2018-10-18T17:14:47.268Z,13.13
2018-10-18T17:20:08.527Z,13.00
2018-10-18T17:22:37.851Z,14.13
2018-10-18T17:25:07.168Z,13.70
2018-10-18T17:27:36.626Z,14.23
2018-10-18T17:30:05.684Z,14.00
2018-10-18T17:32:34.867Z,13.77
2018-10-18T17:35:05.646Z,14.63
2018-10-18T17:37:34.710Z,14.00
2018-10-18T17:40:03.983Z,15.53
2018-10-18T17:42:33.540Z,14.37
2018-10-18T17:45:02.698Z,13.57
2018-10-18T17:47:31.812Z,14.67
2018-10-18T17:50:01.086Z,15.27
2018-10-18T17:52:30.221Z,14.90
2018-10-18T17:54:59.334Z,15.97
2018-10-18T17:57:28.507Z,14.50
2018-10-18T17:59:57.681Z,14.07
2018-10-18T18:02:26.992Z,15.10
2018-10-18T18:04:56.277Z,16.30
2018-10-18T18:07:35.847Z,15.87
2018-10-18T18:10:10.248Z,16.10
2018-10-18T18:12:40.336Z,14.60
2018-10-18T18:15:10.015Z,16.60
2018-10-18T18:17:40.378Z,15.53
2018-10-18T18:20:11.054Z,15.43
2018-10-18T18:22:40.557Z,14.60
2018-10-18T18:25:11.254Z,16.60
2018-10-18T18:27:40.449Z,15.53
2018-10-18T18:30:13.328Z,16.30
2018-10-18T18:32:42.813Z,15.57
2018-10-18T18:35:12.243Z,15.70
2018-10-18T18:37:41.597Z,16.40
2018-10-18T18:40:11.252Z,16.10
2018-10-18T18:42:40.749Z,14.90
2018-10-18T18:45:15.422Z,18.00
2018-10-18T18:47:44.458Z,19.40
2018-10-18T18:50:13.529Z,16.43
2018-10-18T18:52:43.422Z,15.53
2018-10-18T18:55:12.879Z,17.50
2018-10-18T18:57:41.980Z,17.93
2018-10-18T19:00:11.817Z,16.13
2018-10-18T19:02:40.854Z,16.30
2018-10-18T19:05:10.018Z,15.50
2018-10-18T19:07:39.292Z,16.83
2018-10-18T19:10:08.875Z,19.27
2018-10-18T19:12:37.938Z,17.30
2018-10-18T19:15:08.447Z,18.57
2018-10-18T19:17:38.312Z,18.43
2018-10-18T19:20:07.506Z,18.53
2018-10-18T19:22:36.927Z,19.00
2018-10-18T19:25:07.072Z,20.80
2018-10-18T19:27:36.685Z,19.43
2018-10-18T19:30:07.676Z,19.60
2018-10-18T19:32:36.762Z,19.70
2018-10-18T19:35:06.004Z,19.47
2018-10-18T19:37:35.748Z,20.13
2018-10-18T19:40:05.922Z,20.00
2018-10-18T19:42:35.164Z,18.40
2018-10-18T19:45:04.739Z,20.20
2018-10-18T19:47:33.832Z,19.53
2018-10-18T19:50:03.053Z,20.07
2018-10-18T19:52:32.637Z,20.57
2018-10-18T19:55:01.567Z,19.17
2018-10-18T19:57:31.273Z,19.53
2018-10-18T20:00:00.722Z,20.37
2018-10-18T20:02:29.769Z,22.13
2018-10-18T20:04:59.862Z,20.43
2018-10-18T20:07:29.070Z,21.50
2018-10-18T20:09:58.190Z,21.53
2018-10-18T20:12:27.303Z,20.60
2018-10-18T20:14:56.621Z,20.63
2018-10-18T20:17:25.758Z,21.17
2018-10-18T20:19:54.888Z,19.60
2018-10-18T20:22:24.180Z,19.97
2018-10-18T20:24:53.458Z,21.00
2018-10-18T20:27:24.536Z,20.37
2018-10-18T20:29:53.781Z,19.37
2018-10-18T20:32:22.962Z,21.30
2018-10-18T20:34:52.140Z,21.20
2018-10-18T20:37:21.484Z,20.80
2018-10-18T20:39:50.775Z,21.37
2018-10-18T20:42:19.774Z,21.30
2018-10-18T20:44:49.059Z,19.53
2018-10-18T20:47:18.396Z,19.50
2018-10-18T20:49:47.474Z,23.50
2018-10-18T20:52:16.904Z,22.73
2018-10-18T20:54:45.988Z,20.37
2018-10-18T20:57:15.176Z,21.50
2018-10-18T20:59:44.653Z,23.77
2018-10-18T21:02:13.744Z,21.23
2018-10-18T21:04:42.846Z,21.30
2018-10-18T21:07:12.155Z,22.70
2018-10-18T21:09:41.217Z,22.03
2018-10-18T21:12:10.330Z,22.67
2018-10-18T21:14:39.656Z,23.47
2018-10-18T21:17:08.801Z,25.10
2018-10-18T21:19:37.860Z,24.33
2018-10-18T21:22:07.278Z,23.43
2018-10-18T21:24:36.424Z,22.23
2018-10-18T21:27:05.622Z,23.83
2018-10-18T21:29:34.830Z,22.60
2018-10-18T21:32:04.098Z,22.77
2018-10-18T21:34:33.246Z,23.57
2018-10-18T21:37:02.452Z,23.10
2018-10-18T21:39:33.882Z,23.00
2018-10-18T21:42:03.902Z,23.27
2018-10-18T21:44:34.672Z,22.47
2018-10-18T21:47:03.832Z,21.83
2018-10-18T21:49:33.224Z,22.80
2018-10-18T21:52:02.332Z,23.57
2018-10-18T21:54:31.439Z,25.73
2018-10-18T21:57:00.706Z,24.73
2018-10-18T21:59:29.758Z,24.50
2018-10-18T22:01:58.918Z,25.20
2018-10-18T22:04:28.120Z,25.40
2018-10-18T22:06:57.230Z,25.43
2018-10-18T22:09:26.339Z,26.90
2018-10-18T22:11:55.576Z,22.60
2018-10-18T22:14:24.693Z,22.63
2018-10-18T22:16:53.740Z,25.33
2018-10-18T22:19:22.940Z,27.17
2018-10-18T22:21:52.008Z,23.57
2018-10-18T22:24:21.208Z,23.33
2018-10-18T22:26:50.567Z,26.50
2018-10-18T22:29:19.636Z,28.47
2018-10-18T22:31:48.897Z,28.40
2018-10-18T22:34:18.250Z,26.10
2018-10-18T22:36:47.577Z,24.60
2018-10-18T22:39:16.738Z,26.10
2018-10-18T22:41:46.087Z,26.77
2018-10-18T22:44:15.198Z,26.07
2018-10-18T22:46:44.281Z,25.73
2018-10-18T22:49:13.677Z,28.53
2018-10-18T22:51:42.744Z,26.67
2018-10-18T22:54:11.899Z,26.80
2018-10-18T22:56:41.212Z,25.17
2018-10-18T22:59:10.333Z,27.93
2018-10-18T23:01:39.380Z,27.10
2018-10-18T23:04:08.658Z,29.10
2018-10-18T23:06:37.730Z,28.47
2018-10-18T23:09:09.664Z,28.60
2018-10-18T23:11:38.856Z,28.20
2018-10-18T23:14:08.705Z,28.67
2018-10-18T23:16:38.729Z,29.00
2018-10-18T23:19:08.936Z,27.87
2018-10-18T23:21:38.039Z,29.87
2018-10-18T23:24:08.075Z,28.13
2018-10-18T23:26:37.190Z,29.00
2018-10-18T23:29:06.374Z,29.30
2018-10-18T23:31:35.753Z,29.40
2018-10-18T23:34:05.234Z,29.47
2018-10-18T23:36:34.371Z,30.10
2018-10-18T23:39:04.991Z,29.70
2018-10-18T23:41:34.021Z,27.30
2018-10-18T23:44:03.134Z,30.63
2018-10-18T23:46:32.378Z,31.47
2018-10-18T23:49:01.590Z,31.43
2018-10-18T23:51:30.687Z,33.13
2018-10-18T23:54:00.051Z,31.40
2018-10-18T23:56:29.128Z,32.37
2018-10-18T23:58:58.265Z,31.60
